Time;durP1;ratioP1;P1;durP2;ratioP2;P2;SDS_P1;SDS_P2;PMS_P1;PMS_P2;Temp;Humidity;BMP_temperature;BMP_pressure;BME280_temperature;BME280_humidity;BME280_pressure;Samples;Min_cycle;Max_cycle;Signal;HPM_P1;HPM_P2
2023/01/01 03:18:40;;;;;;;13.07;8.40;;;;;;;10.28;100.00;96568.81;4909601;29;20054;-93
2023/01/01 03:21:21;;;;;;;12.93;8.73;;;;;;;10.32;100.00;96571.97;4880070;29;20211;-95
2023/01/01 03:23:55;;;;;;;11.97;8.17;;;;;;;10.25;100.00;96579.59;4920711;29;20074;-94
2023/01/01 03:26:26;;;;;;;12.27;8.00;;;;;;;10.20;100.00;96579.22;4884243;29;20044;-96
2023/01/01 03:33:02;;;;;;;14.43;8.67;;;;;;;9.95;100.00;96582.53;4902218;29;20143;-94
2023/01/01 03:39:17;;;;;;;14.20;9.07;;;;;;;9.90;100.00;96580.38;4901430;29;20031;-95
2023/01/01 03:41:51;;;;;;;13.17;8.73;;;;;;;9.77;100.00;96580.69;4881274;29;20053;-96
2023/01/01 03:44:32;;;;;;;15.65;9.02;;;;;;;9.85;100.00;96574.72;4865880;29;20044;-95
2023/01/01 03:47:27;;;;;;;13.70;8.97;;;;;;;9.90;100.00;96581.19;4866488;29;20120;-96
2023/01/01 03:49:56;;;;;;;17.23;9.23;;;;;;;10.22;100.00;96574.63;4866601;29;20456;-96
2023/01/01 03:52:40;;;;;;;14.80;10.20;;;;;;;10.15;100.00;96571.75;4871310;29;20119;-96
2023/01/01 03:55:15;;;;;;;14.23;8.93;;;;;;;9.94;100.00;96573.03;4885579;29;20062;-96
2023/01/01 04:01:40;;;;;;;15.60;10.17;;;;;;;10.10;100.00;96575.84;4900735;29;20461;-96
2023/01/01 04:04:06;;;;;;;15.43;10.13;;;;;;;9.97;100.00;96580.63;4883868;29;20084;-96
2023/01/01 04:06:33;;;;;;;15.50;10.30;;;;;;;10.01;100.00;96588.03;4899406;29;20103;-95
2023/01/01 04:09:04;;;;;;;19.07;10.80;;;;;;;9.98;100.00;96588.34;4883871;29;20064;-95
2023/01/01 04:18:03;;;;;;;17.33;10.77;;;;;;;9.87;100.00;96588.53;4900303;29;20490;-95
2023/01/01 04:20:30;;;;;;;18.77;11.40;;;;;;;9.81;100.00;96597.00;4883738;29;20484;-96
2023/01/01 04:26:44;;;;;;;17.30;10.83;;;;;;;9.92;100.00;96594.16;4904138;29;20085;-96
2023/01/01 04:29:09;;;;;;;18.57;11.80;;;;;;;9.80;100.00;96603.22;4888394;29;20044;-95
2023/01/01 04:31:35;;;;;;;18.33;11.93;;;;;;;9.63;100.00;96600.41;4887135;29;20041;-96
2023/01/01 04:37:48;;;;;;;18.40;11.97;;;;;;;9.33;100.00;96611.13;4916495;29;20099;-95
2023/01/01 04:40:14;;;;;;;22.20;13.47;;;;;;;9.54;100.00;96611.75;4921710;29;20056;-95
2023/01/01 04:42:40;;;;;;;17.80;11.97;;;;;;;9.44;100.00;96610.97;4886727;29;20068;-95
2023/01/01 04:48:27;;;;;;;19.23;13.00;;;;;;;9.23;100.00;96612.97;4887188;29;20112;-95
2023/01/01 04:51:02;;;;;;;20.13;12.77;;;;;;;9.07;100.00;96614.34;4887741;29;20037;-96
2023/01/01 04:57:15;;;;;;;17.63;12.63;;;;;;;8.80;100.00;96622.13;4903566;29;20123;-96
2023/01/01 04:59:41;;;;;;;22.10;13.23;;;;;;;8.68;100.00;96629.28;4887095;29;20431;-96
2023/01/01 05:02:06;;;;;;;20.33;13.40;;;;;;;8.74;100.00;96618.25;4887657;29;20039;-95
2023/01/01 05:04:32;;;;;;;20.30;13.53;;;;;;;8.85;100.00;96615.50;4909629;29;20036;-96
2023/01/01 05:10:45;;;;;;;18.43;11.60;;;;;;;8.87;100.00;96615.34;4902844;29;20048;-95
2023/01/01 05:13:10;;;;;;;18.87;12.13;;;;;;;9.00;100.00;96610.63;4885738;29;20036;-95
2023/01/01 05:15:36;;;;;;;18.67;11.60;;;;;;;9.25;100.00;96609.19;4901877;29;20043;-96
2023/01/01 05:25:04;;;;;;;18.38;11.50;;;;;;;9.63;100.00;96616.16;4885860;29;20030;-96
2023/01/01 05:27:29;;;;;;;18.87;11.73;;;;;;;9.81;100.00;96612.75;4901793;29;20037;-96
2023/01/01 05:29:55;;;;;;;21.50;11.50;;;;;;;9.87;100.00;96606.94;4901808;29;20031;-95
2023/01/01 05:32:21;;;;;;;16.50;11.37;;;;;;;9.95;100.00;96614.91;4885789;29;20049;-95
2023/01/01 05:38:34;;;;;;;17.30;9.47;;;;;;;9.69;100.00;96619.97;4902320;29;20111;-96
2023/01/01 05:41:09;;;;;;;16.13;10.13;;;;;;;9.59;100.00;96620.03;4885573;29;20047;-95
2023/01/01 05:43:35;;;;;;;16.50;10.37;;;;;;;9.51;100.00;96627.78;4885794;29;20048;-95
2023/01/01 05:46:02;;;;;;;17.53;10.37;;;;;;;9.50;100.00;96620.88;4885720;29;20042;-95
2023/01/01 05:52:15;;;;;;;13.83;9.73;;;;;;;9.82;100.00;96617.84;4902279;29;20039;-95
2023/01/01 05:54:41;;;;;;;16.40;10.50;;;;;;;9.91;100.00;96613.53;4885641;29;20108;-95
2023/01/01 05:57:06;;;;;;;13.90;7.90;;;;;;;9.93;100.00;96619.47;4885605;29;20075;-96
2023/01/01 06:03:19;;;;;;;11.87;7.07;;;;;;;10.14;100.00;96612.16;4902415;29;20110;-95
2023/01/01 06:09:32;;;;;;;9.30;6.03;;;;;;;10.15;100.00;96616.44;4902155;29;20081;-95
2023/01/01 06:11:57;;;;;;;10.77;5.37;;;;;;;10.19;100.00;96618.78;4885337;29;20044;-95
2023/01/01 06:18:11;;;;;;;13.67;7.03;;;;;;;10.07;100.00;96628.69;4920580;29;20043;-95
2023/01/01 06:20:36;;;;;;;9.10;4.50;;;;;;;10.12;100.00;96627.25;4904430;29;20040;-95
2023/01/01 06:23:02;;;;;;;8.97;3.90;;;;;;;10.13;100.00;96626.28;4904983;29;20096;-96
2023/01/01 06:25:28;;;;;;;7.63;4.47;;;;;;;10.05;100.00;96628.81;4920528;29;20040;-95
2023/01/01 06:27:54;;;;;;;7.10;3.67;;;;;;;10.02;100.00;96639.59;4919262;29;20036;-95
2023/01/01 06:30:19;;;;;;;5.73;3.07;;;;;;;10.09;100.00;96640.72;4903695;29;20064;-96
2023/01/01 06:32:45;;;;;;;7.57;4.10;;;;;;;10.23;100.00;96633.28;4903770;29;20403;-95
2023/01/01 06:35:11;;;;;;;7.93;3.60;;;;;;;10.30;100.00;96642.28;4903085;29;20071;-95
2023/01/01 06:41:26;;;;;;;8.53;4.50;;;;;;;10.39;100.00;96644.00;4919945;29;20095;-95
2023/01/01 06:43:53;;;;;;;6.90;3.90;;;;;;;10.25;100.00;96645.31;4903179;29;20048;-95
2023/01/01 06:46:22;;;;;;;7.33;4.70;;;;;;;10.17;100.00;96652.28;4902223;29;20040;-95
2023/01/01 06:52:35;;;;;;;7.07;3.70;;;;;;;9.64;100.00;96653.72;4931658;29;20087;-95
2023/01/01 06:58:48;;;;;;;7.30;3.90;;;;;;;9.44;100.00;96655.59;4921157;29;20068;-96
2023/01/01 07:05:01;;;;;;;8.53;3.40;;;;;;;9.33;100.00;96666.25;4920232;29;20035;-95
2023/01/01 07:07:26;;;;;;;6.40;3.47;;;;;;;9.31;100.00;96669.00;4908362;29;20036;-95
2023/01/01 07:09:52;;;;;;;8.03;3.93;;;;;;;9.33;100.00;96663.63;4919015;29;20040;-94
2023/01/01 07:12:17;;;;;;;8.23;4.13;;;;;;;9.33;100.00;96671.50;4904712;29;20044;-95
2023/01/01 07:14:43;;;;;;;6.50;3.23;;;;;;;9.22;100.00;96675.09;4885159;29;20033;-96
2023/01/01 07:17:09;;;;;;;17.43;10.20;;;;;;;9.21;100.00;96676.88;4889464;29;20068;-95
2023/01/01 07:23:03;;;;;;;6.27;3.40;;;;;;;8.96;100.00;96695.84;4883815;29;20049;-95
2023/01/01 07:25:28;;;;;;;6.70;3.07;;;;;;;8.95;100.00;96695.00;4883517;29;20131;-95
2023/01/01 07:27:54;;;;;;;7.73;3.03;;;;;;;9.01;100.00;96701.47;4883543;29;20064;-95
2023/01/01 07:30:38;;;;;;;6.57;3.27;;;;;;;9.10;100.00;96712.94;4883877;29;20068;-95
2023/01/01 07:33:04;;;;;;;8.13;3.00;;;;;;;9.18;100.00;96708.66;4884041;29;20468;-95
2023/01/01 07:35:30;;;;;;;8.83;3.83;;;;;;;9.24;100.00;96709.91;4884027;29;20044;-96
2023/01/01 07:37:55;;;;;;;7.13;3.60;;;;;;;9.27;100.00;96714.06;4883453;29;20041;-95
2023/01/01 07:40:21;;;;;;;8.20;4.87;;;;;;;9.37;100.00;96704.38;4883868;29;20056;-96
2023/01/01 07:46:35;;;;;;;10.93;4.77;;;;;;;9.84;100.00;96701.78;4900399;29;20039;-95
2023/01/01 07:49:01;;;;;;;9.47;4.47;;;;;;;9.95;100.00;96706.84;4884724;29;20488;-96
2023/01/01 07:55:17;;;;;;;6.83;3.20;;;;;;;10.12;100.00;96702.63;4900901;29;20110;-95
2023/01/01 07:57:43;;;;;;;7.70;3.50;;;;;;;10.14;100.00;96709.41;4868023;29;20513;-95
2023/01/01 08:00:12;;;;;;;5.80;3.63;;;;;;;10.22;100.00;96707.84;4883439;29;20040;-95
2023/01/01 08:06:29;;;;;;;8.93;3.57;;;;;;;10.55;100.00;96709.09;4900501;29;20102;-95
2023/01/01 08:08:54;;;;;;;6.60;3.10;;;;;;;10.74;100.00;96713.44;4884766;29;20028;-95
2023/01/01 08:11:57;;;;;;;7.30;3.60;;;;;;;10.98;100.00;96711.03;4889480;29;20017;-96
2023/01/01 08:18:10;;;;;;;10.03;3.53;;;;;;;11.32;100.00;96711.16;4899897;29;20044;-96
2023/01/01 08:20:35;;;;;;;7.13;3.33;;;;;;;11.42;100.00;96710.25;4898940;29;20033;-95
2023/01/01 08:23:01;;;;;;;6.23;2.93;;;;;;;11.56;100.00;96709.69;4883504;29;20072;-96
2023/01/01 08:29:14;;;;;;;9.77;3.33;;;;;;;11.78;100.00;96711.84;4899763;29;20518;-96
2023/01/01 08:35:30;;;;;;;9.50;4.10;;;;;;;11.80;100.00;96712.53;4900720;29;20071;-96
2023/01/01 08:37:56;;;;;;;9.43;3.83;;;;;;;11.81;100.00;96713.34;4905949;29;20032;-96
2023/01/01 08:40:22;;;;;;;7.00;2.63;;;;;;;11.72;100.00;96715.09;4901928;29;20029;-96
2023/01/01 08:46:37;;;;;;;7.93;2.77;;;;;;;11.60;100.00;96726.03;4902236;29;20043;-96
2023/01/01 08:52:54;;;;;;;4.87;2.43;;;;;;;11.63;100.00;96734.44;4902172;29;20128;-96
2023/01/01 08:55:20;;;;;;;5.83;2.40;;;;;;;11.61;100.00;96731.16;4885981;29;20033;-96
2023/01/01 08:57:46;;;;;;;6.23;2.63;;;;;;;11.64;100.00;96727.41;4870178;29;20039;-96
2023/01/01 09:04:02;;;;;;;6.53;2.60;;;;;;;11.59;100.00;96732.28;4905242;29;20044;-96
2023/01/01 09:06:28;;;;;;;5.93;2.50;;;;;;;11.55;100.00;96735.22;4891238;29;20041;-96
2023/01/01 09:12:41;;;;;;;5.50;2.20;;;;;;;11.57;100.00;96733.28;4905715;29;20043;-96
2023/01/01 09:15:16;;;;;;;7.10;3.03;;;;;;;11.70;100.00;96746.06;4891402;29;20041;-96
2023/01/01 09:21:29;;;;;;;8.60;3.47;;;;;;;11.93;100.00;96745.56;4906191;29;20047;-95
2023/01/01 09:27:42;;;;;;;7.37;3.73;;;;;;;12.35;100.00;96750.09;4906608;29;20049;-96
2023/01/01 09:33:55;;;;;;;7.83;2.43;;;;;;;13.04;100.00;96754.28;4913596;29;20036;-96
2023/01/01 09:40:20;;;;;;;8.87;3.00;;;;;;;13.42;100.00;96749.44;4904676;29;20051;-95
2023/01/01 09:42:53;;;;;;;4.63;2.57;;;;;;;13.33;100.00;96747.75;4886975;29;20092;-96
2023/01/01 09:49:44;;;;;;;6.13;2.70;;;;;;;13.00;100.00;96757.41;4907319;29;20056;-95
2023/01/01 09:52:13;;;;;;;7.83;3.37;;;;;;;12.53;100.00;96750.00;4889393;29;20075;-95
2023/01/01 10:05:50;;;;;;;10.93;4.47;;;;;;;12.30;100.00;96736.53;4921290;29;20035;-96
2023/01/01 10:12:20;;;;;;;9.77;5.20;;;;;;;12.63;100.00;96734.88;4902719;29;20039;-96
2023/01/01 10:18:37;;;;;;;14.90;6.97;;;;;;;12.76;100.00;96732.59;4902007;29;20583;-96
2023/01/01 10:21:28;;;;;;;10.03;5.20;;;;;;;12.94;100.00;96730.69;4885000;29;20063;-96
2023/01/01 10:27:51;;;;;;;9.80;2.73;;;;;;;13.13;100.00;96736.66;4926870;29;20091;-96
2023/01/01 10:37:51;;;;;;;13.37;5.17;;;;;;;13.31;100.00;96741.81;4906991;29;20059;-96
2023/01/01 10:40:44;;;;;;;11.63;4.03;;;;;;;13.31;100.00;96737.38;4884396;29;20043;-96
2023/01/01 10:43:10;;;;;;;5.17;2.27;;;;;;;13.30;100.00;96735.69;4884965;29;20062;-96
2023/01/01 10:45:54;;;;;;;10.27;4.77;;;;;;;13.37;100.00;96739.34;4886216;29;20036;-96
2023/01/01 10:52:36;;;;;;;8.50;3.03;;;;;;;13.33;100.00;96729.28;4886441;29;20048;-96
2023/01/01 10:58:53;;;;;;;16.17;4.43;;;;;;;13.50;100.00;96724.81;4910091;29;20060;-96
2023/01/01 11:09:38;;;;;;;8.43;4.20;;;;;;;13.50;100.00;96730.09;4922898;29;20036;-96
2023/01/01 11:12:06;;;;;;;8.03;4.07;;;;;;;13.68;100.00;96723.66;4899755;29;20059;-96
2023/01/01 11:18:40;;;;;;;8.60;4.20;;;;;;;14.01;100.00;96717.50;4902585;29;20091;-96
2023/01/01 11:21:07;;;;;;;7.53;3.03;;;;;;;14.01;100.00;96718.31;4886372;29;20075;-96
2023/01/01 11:23:34;;;;;;;11.97;3.43;;;;;;;14.27;100.00;96715.44;4885324;29;20036;-96
2023/01/01 11:29:47;;;;;;;6.10;2.70;;;;;;;14.86;100.00;96701.81;4902869;29;20039;-96
2023/01/01 11:32:24;;;;;;;8.35;3.05;;;;;;;15.12;100.00;96703.28;4884524;29;20088;-96
2023/01/01 11:34:59;;;;;;;9.15;3.25;;;;;;;15.35;100.00;96692.69;4899741;29;20048;-95
2023/01/01 11:41:12;;;;;;;7.53;2.60;;;;;;;15.65;100.00;96690.94;4902798;29;20043;-96
2023/01/01 11:44:10;;;;;;;7.68;2.72;;;;;;;15.76;100.00;96691.38;4885499;29;20040;-96
2023/01/01 11:46:52;;;;;;;5.45;1.85;;;;;;;15.90;100.00;96683.63;4903856;29;20047;-96
2023/01/01 11:53:21;;;;;;;5.22;1.90;;;;;;;16.15;100.00;96670.91;4900929;29;20050;-95
2023/01/01 11:56:04;;;;;;;8.63;3.00;;;;;;;16.24;100.00;96667.97;4899621;29;20041;-95
2023/01/01 11:58:35;;;;;;;6.10;2.25;;;;;;;16.43;100.00;96668.41;4900393;29;20394;-93
2023/01/01 12:05:08;;;;;;;5.90;1.98;;;;;;;16.60;100.00;96661.91;4907852;29;20051;-95
2023/01/01 12:11:34;;;;;;;8.18;1.98;;;;;;;16.82;100.00;96649.50;4902891;29;20077;-95
2023/01/01 12:14:26;;;;;;;7.45;2.30;;;;;;;17.12;100.00;96647.56;4889923;29;20024;-94
2023/01/01 12:17:21;;;;;;;4.70;2.00;;;;;;;16.77;100.00;96648.41;4878762;29;20052;-94
2023/01/01 12:23:34;;;;;;;4.57;1.83;;;;;;;16.48;100.00;96650.09;4882762;29;20609;-95
2023/01/01 12:26:30;;;;;;;9.93;1.95;;;;;;;16.59;100.00;96651.44;4867415;29;20051;-95
2023/01/01 12:41:10;;;;;;;7.00;2.15;;;;;;;16.64;100.00;96636.63;4896959;29;20047;-96
2023/01/01 12:43:48;;;;;;;8.63;2.53;;;;;;;16.47;100.00;96641.31;4877046;29;20120;-93
2023/01/01 12:46:53;;;;;;;7.18;2.38;;;;;;;16.48;100.00;96639.50;4885419;29;20107;-93
2023/01/01 12:49:57;;;;;;;6.90;2.13;;;;;;;16.37;100.00;96637.31;4888794;29;20060;-93
2023/01/01 12:52:48;;;;;;;5.32;2.00;;;;;;;16.55;100.00;96635.06;4888339;29;20028;-93
2023/01/01 12:55:51;;;;;;;8.85;2.28;;;;;;;16.59;100.00;96635.53;4899554;29;20079;-92
2023/01/01 12:59:04;;;;;;;6.75;2.00;;;;;;;16.44;100.00;96630.25;4884273;29;20514;-92
2023/01/01 13:01:47;;;;;;;6.05;1.83;;;;;;;16.45;100.00;96626.59;4868926;29;20049;-93
2023/01/01 13:04:18;;;;;;;6.03;1.90;;;;;;;16.39;100.00;96632.63;4887431;29;20040;-92
2023/01/01 13:07:04;;;;;;;5.30;2.38;;;;;;;16.35;100.00;96628.72;4892437;29;20043;-90
2023/01/01 13:09:38;;;;;;;6.72;2.80;;;;;;;16.31;100.00;96630.09;4885823;29;20043;-90
2023/01/01 13:12:11;;;;;;;5.88;1.83;;;;;;;16.26;100.00;96620.88;4886802;29;20036;-90
2023/01/01 13:14:45;;;;;;;7.43;2.55;;;;;;;16.23;100.00;96623.88;4876647;29;20035;-90
2023/01/01 13:17:28;;;;;;;5.78;2.00;;;;;;;16.08;100.00;96622.25;4889813;29;20679;-90
2023/01/01 13:20:14;;;;;;;3.40;1.55;;;;;;;16.10;100.00;96615.75;4879692;29;20049;-90
2023/01/01 13:22:42;;;;;;;8.15;2.10;;;;;;;16.08;100.00;96619.59;4883489;29;20102;-90
2023/01/01 13:25:20;;;;;;;8.52;2.00;;;;;;;16.09;100.00;96622.06;4888538;29;20372;-90
2023/01/01 13:27:55;;;;;;;8.02;2.08;;;;;;;16.00;100.00;96626.66;4887565;29;20033;-90
2023/01/01 13:30:37;;;;;;;9.48;1.95;;;;;;;16.08;100.00;96623.06;4884169;29;20044;-90
2023/01/01 13:33:31;;;;;;;10.50;2.25;;;;;;;16.19;100.00;96625.25;4884257;29;20056;-89
2023/01/01 13:36:13;;;;;;;;;;;;;;;16.13;100.00;96620.69;4889872;29;20063;-89
2023/01/01 13:38:59;;;;;;;4.40;1.60;;;;;;;16.20;100.00;96621.59;4900215;29;19952;-89
2023/01/01 13:41:34;;;;;;;8.27;2.15;;;;;;;16.14;100.00;96622.34;4883996;29;20034;-89
2023/01/01 13:44:03;;;;;;;6.22;1.80;;;;;;;16.22;100.00;96624.88;4876791;29;20108;-89
2023/01/01 13:49:58;;;;;;;8.57;2.92;;;;;;;16.08;100.00;96620.41;4899925;29;20041;-89
2023/01/01 13:52:42;;;;;;;10.90;4.00;;;;;;;16.10;100.00;96621.06;4883840;29;20045;-91
2023/01/01 13:55:32;;;;;;;11.63;3.78;;;;;;;16.01;100.00;96619.50;4900622;29;20043;-89
2023/01/01 13:58:36;;;;;;;7.65;3.22;;;;;;;15.99;100.00;96617.03;4884976;29;20045;-90
2023/01/01 14:01:11;;;;;;;8.80;2.63;;;;;;;15.95;100.00;96618.41;4891107;29;20040;-90
2023/01/01 14:03:50;;;;;;;11.50;2.47;;;;;;;15.88;100.00;96617.50;4884576;29;20473;-90
2023/01/01 14:06:43;;;;;;;8.35;3.00;;;;;;;16.03;100.00;96614.84;4881063;29;20090;-91
2023/01/01 14:09:16;;;;;;;12.93;4.70;;;;;;;15.94;100.00;96615.94;4885080;29;20404;-93
2023/01/01 14:11:45;;;;;;;13.25;4.80;;;;;;;15.98;100.00;96618.03;4883413;29;20051;-92
2023/01/01 14:18:01;;;;;;;15.05;7.32;;;;;;;15.93;100.00;96616.97;4905143;29;20044;-96
2023/01/01 14:20:39;;;;;;;14.13;6.72;;;;;;;15.93;100.00;96611.66;4886678;29;20037;-94
2023/01/01 14:23:16;;;;;;;9.10;4.30;;;;;;;15.85;100.00;96611.72;4886295;29;20043;-93
2023/01/01 14:25:43;;;;;;;7.35;2.95;;;;;;;15.56;100.00;96619.47;4880218;29;20043;-92
2023/01/01 14:28:22;;;;;;;8.52;3.30;;;;;;;15.53;100.00;96614.53;4885961;29;20052;-92
2023/01/01 14:30:49;;;;;;;8.15;3.10;;;;;;;15.47;100.00;96617.06;4886711;29;20495;-93
2023/01/01 14:33:27;;;;;;;7.45;2.40;;;;;;;15.27;100.00;96599.03;4887696;29;20088;-92
2023/01/01 14:55:43;;;;;;;10.40;3.00;;;;;;;14.34;100.00;96601.81;4863607;29;20032;-92
2023/01/01 14:58:21;;;;;;;8.68;2.67;;;;;;;14.22;100.00;96604.03;4874917;29;20037;-91
2023/01/01 15:00:48;;;;;;;6.70;2.65;;;;;;;14.13;100.00;96605.88;4843394;29;20072;-90
2023/01/01 15:03:20;;;;;;;8.50;3.25;;;;;;;14.17;100.00;96611.66;4856514;29;20511;-91
2023/01/01 15:06:01;;;;;;;9.98;3.05;;;;;;;14.00;100.00;96608.25;4896117;29;20067;-91
2023/01/01 15:12:16;;;;;;;6.95;2.38;;;;;;;13.75;100.00;96614.59;4901538;29;20080;-95
2023/01/01 15:18:44;;;;;;;27.88;17.67;;;;;;;13.50;100.00;96619.13;4901139;29;20065;-95
2023/01/01 15:28:45;;;;;;;11.40;6.15;;;;;;;13.26;100.00;96606.78;4904693;29;20134;-95
2023/01/01 15:35:00;;;;;;;11.35;3.40;;;;;;;13.04;100.00;96624.06;4902155;29;20476;-94
2023/01/01 15:38:01;;;;;;;7.15;3.10;;;;;;;12.88;100.00;96625.75;4884679;29;20045;-94
2023/01/01 15:40:44;;;;;;;9.73;2.50;;;;;;;12.75;100.00;96622.75;4885610;29;20036;-94
2023/01/01 15:43:28;;;;;;;5.95;2.22;;;;;;;12.68;100.00;96619.13;4899420;29;20189;-94
2023/01/01 15:46:09;;;;;;;7.03;2.53;;;;;;;12.70;100.00;96622.41;4888541;29;20041;-94
2023/01/01 15:48:50;;;;;;;8.63;2.50;;;;;;;12.63;100.00;96621.41;4898272;29;20378;-94
2023/01/01 15:51:28;;;;;;;;;;;;;;;12.54;100.00;96617.94;4891004;29;20041;-94
2023/01/01 15:53:59;;;;;;;6.80;2.83;;;;;;;12.54;100.00;96622.38;4906773;29;19922;-94
2023/01/01 15:56:56;;;;;;;9.00;3.70;;;;;;;12.46;100.00;96631.09;4872889;29;20041;-94
2023/01/01 15:59:52;;;;;;;9.47;2.73;;;;;;;12.50;100.00;96625.34;4883749;29;20052;-94
2023/01/01 16:02:54;;;;;;;8.50;3.17;;;;;;;12.45;100.00;96630.28;4883608;29;20036;-94
2023/01/01 16:09:20;;;;;;;6.57;2.67;;;;;;;12.48;100.00;96629.97;4881409;29;20088;-94
2023/01/01 16:15:35;;;;;;;6.63;2.60;;;;;;;12.41;100.00;96644.78;4899866;29;20183;-93
2023/01/01 16:18:04;;;;;;;7.93;3.10;;;;;;;12.36;100.00;96633.88;4884078;29;20039;-90
2023/01/01 16:20:33;;;;;;;4.73;2.77;;;;;;;12.24;100.00;96637.81;4891910;29;20414;-90
2023/01/01 16:22:58;;;;;;;6.60;2.73;;;;;;;12.16;100.00;96640.41;4891433;29;20495;-91
2023/01/01 16:25:26;;;;;;;6.37;2.90;;;;;;;12.01;100.00;96643.66;4890298;29;20028;-90
2023/01/01 16:28:10;;;;;;;7.93;2.90;;;;;;;11.91;100.00;96642.13;4895379;29;20035;-90
2023/01/01 16:30:46;;;;;;;10.33;3.23;;;;;;;11.86;100.00;96653.13;4885025;29;20034;-90
2023/01/01 16:33:17;;;;;;;9.40;3.20;;;;;;;11.71;100.00;96641.47;4870442;29;20036;-90
2023/01/01 16:35:49;;;;;;;9.93;3.50;;;;;;;11.64;100.00;96641.28;4882163;29;20044;-90
2023/01/01 16:38:18;;;;;;;9.73;3.93;;;;;;;11.60;100.00;96647.81;4885084;29;20040;-91
2023/01/01 16:40:44;;;;;;;9.80;4.47;;;;;;;11.55;100.00;96642.22;4885182;29;20041;-89
2023/01/01 16:43:24;;;;;;;8.63;4.50;;;;;;;11.47;100.00;96650.06;4900713;29;20036;-90
2023/01/01 16:45:53;;;;;;;10.73;4.33;;;;;;;11.34;100.00;96645.19;4886371;29;20048;-90
2023/01/01 16:48:25;;;;;;;7.17;3.70;;;;;;;11.25;100.00;96643.47;4885766;29;20175;-91
2023/01/01 16:50:54;;;;;;;7.70;3.47;;;;;;;11.21;100.00;96642.16;4889281;29;20043;-90
2023/01/01 16:53:19;;;;;;;6.10;3.10;;;;;;;11.22;100.00;96633.25;4884072;29;20041;-91
2023/01/01 16:55:54;;;;;;;6.60;3.80;;;;;;;11.22;100.00;96630.63;4885755;29;20638;-90
2023/01/01 16:58:23;;;;;;;9.90;4.00;;;;;;;11.29;100.00;96624.59;4889954;29;20056;-90
2023/01/01 17:01:03;;;;;;;13.10;5.23;;;;;;;11.45;100.00;96631.78;4893071;29;20495;-90
2023/01/01 17:03:44;;;;;;;11.47;5.70;;;;;;;11.60;100.00;96618.03;4887588;29;20044;-94
2023/01/01 17:06:10;;;;;;;11.03;6.27;;;;;;;11.79;100.00;96610.72;4906929;29;20047;-92
2023/01/01 17:08:38;;;;;;;12.63;8.07;;;;;;;11.98;100.00;96614.97;4905043;29;20758;-96
2023/01/01 17:11:40;;;;;;;13.23;7.83;;;;;;;11.98;100.00;96612.31;4905436;29;20080;-94
2023/01/01 17:14:20;;;;;;;7.30;3.83;;;;;;;11.72;100.00;96608.88;4909801;29;20016;-92
2023/01/01 17:16:55;;;;;;;9.73;4.20;;;;;;;11.47;100.00;96610.56;4904480;29;20048;-89
2023/01/01 17:19:21;;;;;;;16.97;7.13;;;;;;;11.25;100.00;96612.72;4903586;29;20139;-89
2023/01/01 17:21:53;;;;;;;21.97;12.63;;;;;;;11.07;100.00;96612.75;4904938;29;20542;-89
2023/01/01 17:36:56;;;;;;;21.60;10.30;;;;;;;10.69;100.00;96613.91;4827177;29;20049;-88
2023/01/01 17:42:41;;;;;;;11.63;5.30;;;;;;;10.84;100.00;96607.13;4880070;29;20044;-89
2023/01/01 17:45:07;;;;;;;10.03;4.97;;;;;;;10.81;100.00;96601.34;4884106;29;20088;-90
2023/01/01 17:47:36;;;;;;;12.53;6.73;;;;;;;10.69;100.00;96610.44;4892896;29;20562;-89
2023/01/01 17:50:14;;;;;;;10.50;5.70;;;;;;;10.59;100.00;96607.88;4888848;29;20044;-90
2023/01/01 17:53:05;;;;;;;8.70;4.60;;;;;;;10.69;100.00;96607.81;4892516;29;20032;-89
2023/01/01 17:55:31;;;;;;;7.27;3.63;;;;;;;10.84;100.00;96608.94;4868361;29;20119;-92
2023/01/01 17:57:58;;;;;;;9.13;3.77;;;;;;;10.86;100.00;96599.09;4888680;29;20082;-91
2023/01/01 18:00:25;;;;;;;9.77;3.90;;;;;;;10.76;100.00;96603.59;4902625;29;20047;-89
2023/01/01 18:02:54;;;;;;;7.30;3.57;;;;;;;10.81;100.00;96596.09;4897103;29;20107;-91
2023/01/01 18:05:21;;;;;;;8.43;3.63;;;;;;;10.81;100.00;96601.34;4904320;29;20028;-91
2023/01/01 18:07:47;;;;;;;8.23;3.60;;;;;;;10.85;100.00;96594.81;4899532;29;20045;-88
2023/01/01 18:10:17;;;;;;;7.10;3.20;;;;;;;10.95;100.00;96585.03;4892738;29;20108;-88
2023/01/01 18:13:02;;;;;;;6.70;3.00;;;;;;;10.94;100.00;96593.91;4890575;29;20055;-94
2023/01/01 18:15:28;;;;;;;8.43;3.03;;;;;;;10.98;100.00;96586.53;4902478;29;20074;-92
2023/01/01 18:17:54;;;;;;;5.13;2.60;;;;;;;10.99;100.00;96583.72;4888497;29;20040;-93
2023/01/01 18:21:09;;;;;;;;;;;;;;;;;;;;;
2023/01/01 18:23:40;;;;;;;8.17;4.17;;;;;;;10.97;100.00;96584.88;4892226;29;20048;-93
2023/01/01 18:26:09;;;;;;;7.90;3.60;;;;;;;10.93;100.00;96589.63;4887314;29;20052;-96
2023/01/01 18:28:38;;;;;;;10.07;3.43;;;;;;;10.95;100.00;96582.38;4881517;29;20029;-96
2023/01/01 18:31:25;;;;;;;7.80;3.70;;;;;;;10.91;100.00;96583.69;4889537;29;20044;-95
2023/01/01 18:34:09;;;;;;;9.13;4.17;;;;;;;10.95;100.00;96579.75;4904967;29;20075;-93
2023/01/01 18:36:43;;;;;;;9.02;4.40;;;;;;;10.87;100.00;96582.34;4894782;29;20040;-94
2023/01/01 18:39:40;;;;;;;7.17;4.00;;;;;;;10.90;100.00;96579.41;4889072;29;20042;-93
2023/01/01 18:42:43;;;;;;;9.70;3.90;;;;;;;10.81;100.00;96570.59;4911667;29;20052;-93
2023/01/01 18:45:38;;;;;;;9.32;3.53;;;;;;;10.84;100.00;96583.47;4912505;29;20047;-95
2023/01/01 18:48:25;;;;;;;6.57;3.20;;;;;;;10.90;100.00;96583.81;4893663;29;20028;-93
2023/01/01 18:51:08;;;;;;;6.60;2.83;;;;;;;10.95;100.00;96582.38;4901521;29;20081;-90
2023/01/01 18:53:52;;;;;;;;;;;;;;;11.00;100.00;96580.13;4881983;29;20444;-89
2023/01/01 18:56:19;;;;;;;5.13;2.63;;;;;;;11.04;100.00;96586.75;4892478;29;19915;-90
2023/01/01 18:58:51;;;;;;;4.43;2.27;;;;;;;11.09;100.00;96578.38;4873889;29;20043;-91
2023/01/01 19:01:43;;;;;;;10.85;3.20;;;;;;;11.15;100.00;96582.22;4887776;29;20044;-91
2023/01/01 19:07:37;;;;;;;5.90;2.30;;;;;;;11.15;100.00;96582.22;4905707;29;20059;-96
2023/01/01 19:10:31;;;;;;;3.97;2.10;;;;;;;11.14;100.00;96577.94;4878646;29;20066;-93
2023/01/01 19:12:56;;;;;;;7.33;2.90;;;;;;;11.02;100.00;96569.44;4893314;29;20047;-93
2023/01/01 19:15:29;;;;;;;6.23;2.53;;;;;;;10.95;100.00;96577.13;4886895;29;20023;-93
2023/01/01 19:17:55;;;;;;;5.43;2.22;;;;;;;10.99;100.00;96577.66;4901788;29;20070;-93
2023/01/01 19:20:23;;;;;;;9.23;4.60;;;;;;;10.99;100.00;96567.94;4891116;29;20047;-92
2023/01/01 19:22:49;;;;;;;14.37;8.20;;;;;;;11.00;100.00;96558.22;4920620;29;20021;-93
2023/01/01 19:25:38;;;;;;;8.73;3.60;;;;;;;10.98;100.00;96561.03;4879119;29;20036;-93
2023/01/01 19:28:33;;;;;;;6.47;3.60;;;;;;;11.12;100.00;96562.28;4891392;29;20039;-93
2023/01/01 19:31:00;;;;;;;9.50;4.73;;;;;;;10.95;100.00;96556.06;4894303;29;20044;-92
2023/01/01 19:33:33;;;;;;;13.07;6.33;;;;;;;10.75;100.00;96560.69;4892410;29;20047;-93
2023/01/01 19:36:03;;;;;;;9.93;5.17;;;;;;;10.60;100.00;96568.31;4888187;29;20047;-92
2023/01/01 19:38:39;;;;;;;9.17;4.17;;;;;;;10.48;100.00;96556.34;4904513;29;20510;-93
2023/01/01 19:41:13;;;;;;;8.97;3.57;;;;;;;10.43;100.00;96556.00;4886078;29;20036;-92
2023/01/01 19:43:40;;;;;;;7.90;3.37;;;;;;;10.40;100.00;96555.47;4887031;29;20566;-92
2023/01/01 19:46:05;;;;;;;7.90;3.33;;;;;;;10.42;100.00;96556.94;4914629;29;20040;-93
2023/01/01 19:48:36;;;;;;;8.27;3.90;;;;;;;10.28;100.00;96550.41;4885329;29;20035;-92
2023/01/01 19:51:02;;;;;;;7.07;3.20;;;;;;;10.32;100.00;96543.06;4889456;29;20037;-91
2023/01/01 19:53:28;;;;;;;7.90;3.77;;;;;;;10.28;100.00;96544.34;4881395;29;20444;-92
2023/01/01 19:55:56;;;;;;;7.10;3.50;;;;;;;10.32;100.00;96538.63;4887116;29;20058;-93
2023/01/01 19:58:34;;;;;;;9.60;3.03;;;;;;;10.29;100.00;96540.72;4883745;29;20036;-91
2023/01/01 20:01:07;;;;;;;10.00;4.53;;;;;;;10.23;100.00;96542.13;4889395;29;20063;-91
2023/01/01 20:03:40;;;;;;;6.65;3.25;;;;;;;10.41;100.00;96536.91;4886024;29;20047;-93
2023/01/01 20:06:07;;;;;;;7.25;3.47;;;;;;;10.26;100.00;96539.25;4886421;29;20559;-92
2023/01/01 20:08:37;;;;;;;7.03;2.93;;;;;;;10.36;100.00;96526.84;4885065;29;20097;-93